Terminal Aerodrome Forecast
Issued by NWS Tampa Bay Area, FL

Home | Current Version | Previous Version | Text Only | Print | Product List | Glossary Off
Versions: 1 2 3 4 5 6 7 8 9 10 11 12 13 14 15 16 17 18 19 20 21 22 23 24

000
FTUS42 KTBW 311400 AAA
TAFTPA
TAF AMD
KTPA 311458Z 3115/0112 33009KT P6SM FEW080
     FM311700 31011KT P6SM FEW150
     FM312300 31006KT P6SM SKC
     FM010800 34012KT P6SM SCT040=

USA.gov is the U.S. government's official web portal to all federal, state and local government web resources and services.